sensor_id;sensor_type;location;lat;lon;timestamp;temperature;humidity
39847;DHT22;25517;52.422;10.782;2023-12-20T00:00:58;6.90;99.90
39847;DHT22;25517;52.422;10.782;2023-12-20T00:03:23;6.90;99.90
39847;DHT22;25517;52.422;10.782;2023-12-20T00:05:49;6.90;99.90
39847;DHT22;25517;52.422;10.782;2023-12-20T00:08:16;6.90;99.90
39847;DHT22;25517;52.422;10.782;2023-12-20T00:10:41;6.90;99.90
39847;DHT22;25517;52.422;10.782;2023-12-20T00:13:07;6.90;99.90
39847;DHT22;25517;52.422;10.782;2023-12-20T00:15:33;6.90;99.90
39847;DHT22;25517;52.422;10.782;2023-12-20T00:17:59;6.90;99.90
39847;DHT22;25517;52.422;10.782;2023-12-20T00:20:26;6.90;99.90
39847;DHT22;25517;52.422;10.782;2023-12-20T00:22:53;6.80;99.90
39847;DHT22;25517;52.422;10.782;2023-12-20T00:25:19;6.80;99.90
39847;DHT22;25517;52.422;10.782;2023-12-20T00:27:44;6.70;99.90
39847;DHT22;25517;52.422;10.782;2023-12-20T00:30:10;6.70;99.90
39847;DHT22;25517;52.422;10.782;2023-12-20T00:32:36;6.70;99.90
39847;DHT22;25517;52.422;10.782;2023-12-20T00:35:02;6.70;99.90
39847;DHT22;25517;52.422;10.782;2023-12-20T00:37:27;6.70;99.90
39847;DHT22;25517;52.422;10.782;2023-12-20T00:39:53;6.60;99.90
39847;DHT22;25517;52.422;10.782;2023-12-20T00:42:19;6.60;99.90
39847;DHT22;25517;52.422;10.782;2023-12-20T00:44:44;6.50;99.90
39847;DHT22;25517;52.422;10.782;2023-12-20T00:47:10;6.50;99.90
39847;DHT22;25517;52.422;10.782;2023-12-20T00:49:35;6.50;99.90
39847;DHT22;25517;52.422;10.782;2023-12-20T00:52:01;6.50;99.90
39847;DHT22;25517;52.422;10.782;2023-12-20T00:54:27;6.50;99.90
39847;DHT22;25517;52.422;10.782;2023-12-20T00:56:52;6.50;99.90
39847;DHT22;25517;52.422;10.782;2023-12-20T00:59:18;6.50;99.90
39847;DHT22;25517;52.422;10.782;2023-12-20T01:01:44;6.40;99.90
39847;DHT22;25517;52.422;10.782;2023-12-20T01:04:10;6.40;99.90
39847;DHT22;25517;52.422;10.782;2023-12-20T01:06:36;6.40;99.90
39847;DHT22;25517;52.422;10.782;2023-12-20T01:09:01;6.40;99.90
39847;DHT22;25517;52.422;10.782;2023-12-20T01:11:27;6.30;99.90
39847;DHT22;25517;52.422;10.782;2023-12-20T01:13:53;6.30;99.90
39847;DHT22;25517;52.422;10.782;2023-12-20T01:16:18;6.30;99.90
39847;DHT22;25517;52.422;10.782;2023-12-20T01:18:44;6.20;99.90
39847;DHT22;25517;52.422;10.782;2023-12-20T01:21:10;6.20;99.90
39847;DHT22;25517;52.422;10.782;2023-12-20T01:23:36;6.20;99.90
39847;DHT22;25517;52.422;10.782;2023-12-20T01:26:01;6.10;99.90
39847;DHT22;25517;52.422;10.782;2023-12-20T01:28:28;6.10;99.90
39847;DHT22;25517;52.422;10.782;2023-12-20T01:30:53;6.00;99.90
39847;DHT22;25517;52.422;10.782;2023-12-20T01:33:19;6.00;99.90
39847;DHT22;25517;52.422;10.782;2023-12-20T01:35:44;6.00;99.90
39847;DHT22;25517;52.422;10.782;2023-12-20T01:38:10;6.00;99.90
39847;DHT22;25517;52.422;10.782;2023-12-20T01:40:36;6.00;99.90
39847;DHT22;25517;52.422;10.782;2023-12-20T01:43:08;6.00;99.90
39847;DHT22;25517;52.422;10.782;2023-12-20T01:45:34;5.90;99.90
39847;DHT22;25517;52.422;10.782;2023-12-20T01:48:00;5.90;99.90
39847;DHT22;25517;52.422;10.782;2023-12-20T01:50:28;5.90;99.90
39847;DHT22;25517;52.422;10.782;2023-12-20T01:52:55;5.90;99.90
39847;DHT22;25517;52.422;10.782;2023-12-20T01:55:23;5.90;99.90
39847;DHT22;25517;52.422;10.782;2023-12-20T01:57:50;5.80;99.90
39847;DHT22;25517;52.422;10.782;2023-12-20T02:00:17;5.80;99.90
39847;DHT22;25517;52.422;10.782;2023-12-20T02:02:44;5.80;99.90
39847;DHT22;25517;52.422;10.782;2023-12-20T02:05:11;5.80;99.90
39847;DHT22;25517;52.422;10.782;2023-12-20T02:07:36;5.70;99.90
39847;DHT22;25517;52.422;10.782;2023-12-20T02:10:02;5.70;99.90
39847;DHT22;25517;52.422;10.782;2023-12-20T02:12:29;5.70;99.90
39847;DHT22;25517;52.422;10.782;2023-12-20T02:14:55;5.70;99.90
39847;DHT22;25517;52.422;10.782;2023-12-20T02:17:22;5.70;99.90
39847;DHT22;25517;52.422;10.782;2023-12-20T02:19:49;5.70;99.90
39847;DHT22;25517;52.422;10.782;2023-12-20T02:22:14;5.70;99.90
39847;DHT22;25517;52.422;10.782;2023-12-20T02:24:40;5.70;99.90
39847;DHT22;25517;52.422;10.782;2023-12-20T02:27:06;5.70;99.90
39847;DHT22;25517;52.422;10.782;2023-12-20T02:29:33;5.80;99.90
39847;DHT22;25517;52.422;10.782;2023-12-20T02:31:59;5.80;99.90
39847;DHT22;25517;52.422;10.782;2023-12-20T02:34:24;5.80;99.90
39847;DHT22;25517;52.422;10.782;2023-12-20T02:36:50;5.80;99.90
39847;DHT22;25517;52.422;10.782;2023-12-20T02:39:16;5.80;99.90
39847;DHT22;25517;52.422;10.782;2023-12-20T02:41:41;5.80;99.90
39847;DHT22;25517;52.422;10.782;2023-12-20T02:44:07;5.80;99.90
39847;DHT22;25517;52.422;10.782;2023-12-20T02:46:33;5.80;99.90
39847;DHT22;25517;52.422;10.782;2023-12-20T02:48:58;5.70;99.90
39847;DHT22;25517;52.422;10.782;2023-12-20T02:51:24;5.70;99.90
39847;DHT22;25517;52.422;10.782;2023-12-20T02:53:49;5.70;99.90
39847;DHT22;25517;52.422;10.782;2023-12-20T02:56:15;5.60;99.90
39847;DHT22;25517;52.422;10.782;2023-12-20T02:58:41;5.60;99.90
39847;DHT22;25517;52.422;10.782;2023-12-20T03:01:06;5.50;99.90
39847;DHT22;25517;52.422;10.782;2023-12-20T03:03:32;5.50;99.90
39847;DHT22;25517;52.422;10.782;2023-12-20T03:05:59;5.40;99.90
39847;DHT22;25517;52.422;10.782;2023-12-20T03:08:25;5.40;99.90
39847;DHT22;25517;52.422;10.782;2023-12-20T03:10:51;5.30;99.90
39847;DHT22;25517;52.422;10.782;2023-12-20T03:13:16;5.30;99.90
39847;DHT22;25517;52.422;10.782;2023-12-20T03:15:42;5.30;99.90
39847;DHT22;25517;52.422;10.782;2023-12-20T03:18:07;5.30;99.90
39847;DHT22;25517;52.422;10.782;2023-12-20T03:20:33;5.20;99.90
39847;DHT22;25517;52.422;10.782;2023-12-20T03:23:00;5.20;99.90
39847;DHT22;25517;52.422;10.782;2023-12-20T03:25:26;5.10;99.90
39847;DHT22;25517;52.422;10.782;2023-12-20T03:27:52;5.10;99.90
39847;DHT22;25517;52.422;10.782;2023-12-20T03:30:18;5.10;99.90
39847;DHT22;25517;52.422;10.782;2023-12-20T03:32:43;5.10;99.90
39847;DHT22;25517;52.422;10.782;2023-12-20T03:35:09;5.10;99.90
39847;DHT22;25517;52.422;10.782;2023-12-20T03:37:35;5.10;99.90
39847;DHT22;25517;52.422;10.782;2023-12-20T03:40:01;5.10;99.90
39847;DHT22;25517;52.422;10.782;2023-12-20T03:42:26;5.10;99.90
39847;DHT22;25517;52.422;10.782;2023-12-20T03:44:52;5.10;99.90
39847;DHT22;25517;52.422;10.782;2023-12-20T03:47:18;5.20;99.90
39847;DHT22;25517;52.422;10.782;2023-12-20T03:49:43;5.20;99.90
39847;DHT22;25517;52.422;10.782;2023-12-20T03:52:09;5.10;99.90
39847;DHT22;25517;52.422;10.782;2023-12-20T03:54:37;5.10;99.90
39847;DHT22;25517;52.422;10.782;2023-12-20T03:57:03;5.10;99.90
39847;DHT22;25517;52.422;10.782;2023-12-20T03:59:30;5.10;99.90
39847;DHT22;25517;52.422;10.782;2023-12-20T04:01:55;5.10;99.90
39847;DHT22;25517;52.422;10.782;2023-12-20T04:04:21;5.00;99.90
39847;DHT22;25517;52.422;10.782;2023-12-20T04:06:46;5.00;99.90
39847;DHT22;25517;52.422;10.782;2023-12-20T04:09:12;5.00;99.90
39847;DHT22;25517;52.422;10.782;2023-12-20T04:11:38;5.00;99.90
39847;DHT22;25517;52.422;10.782;2023-12-20T04:14:03;4.90;99.90
39847;DHT22;25517;52.422;10.782;2023-12-20T04:16:32;4.90;99.90
39847;DHT22;25517;52.422;10.782;2023-12-20T04:18:58;4.90;99.90
39847;DHT22;25517;52.422;10.782;2023-12-20T04:21:24;4.90;99.90
39847;DHT22;25517;52.422;10.782;2023-12-20T04:23:49;4.90;99.90
39847;DHT22;25517;52.422;10.782;2023-12-20T04:26:16;4.80;99.90
39847;DHT22;25517;52.422;10.782;2023-12-20T04:28:42;4.80;99.90
39847;DHT22;25517;52.422;10.782;2023-12-20T04:31:08;4.80;99.90
39847;DHT22;25517;52.422;10.782;2023-12-20T04:33:33;4.80;99.90
39847;DHT22;25517;52.422;10.782;2023-12-20T04:35:59;4.80;99.90
39847;DHT22;25517;52.422;10.782;2023-12-20T04:38:26;4.80;99.90
39847;DHT22;25517;52.422;10.782;2023-12-20T04:40:51;4.70;99.90
39847;DHT22;25517;52.422;10.782;2023-12-20T04:43:17;4.80;99.90
39847;DHT22;25517;52.422;10.782;2023-12-20T04:45:43;4.80;99.90
39847;DHT22;25517;52.422;10.782;2023-12-20T04:48:08;4.80;99.90
39847;DHT22;25517;52.422;10.782;2023-12-20T04:50:34;4.80;99.90
39847;DHT22;25517;52.422;10.782;2023-12-20T04:53:00;4.80;99.90
39847;DHT22;25517;52.422;10.782;2023-12-20T04:55:25;4.80;99.90
39847;DHT22;25517;52.422;10.782;2023-12-20T04:57:51;4.80;99.90
39847;DHT22;25517;52.422;10.782;2023-12-20T05:00:17;4.80;99.90
39847;DHT22;25517;52.422;10.782;2023-12-20T05:02:43;4.80;99.90
39847;DHT22;25517;52.422;10.782;2023-12-20T05:05:08;4.80;99.90
39847;DHT22;25517;52.422;10.782;2023-12-20T05:07:34;4.80;99.90
39847;DHT22;25517;52.422;10.782;2023-12-20T05:10:00;4.80;99.90
39847;DHT22;25517;52.422;10.782;2023-12-20T05:12:25;4.80;99.90
39847;DHT22;25517;52.422;10.782;2023-12-20T05:14:52;4.90;99.90
39847;DHT22;25517;52.422;10.782;2023-12-20T05:17:18;4.80;99.90
39847;DHT22;25517;52.422;10.782;2023-12-20T05:19:46;4.80;99.90
39847;DHT22;25517;52.422;10.782;2023-12-20T05:22:11;4.90;99.90
39847;DHT22;25517;52.422;10.782;2023-12-20T05:24:37;4.90;99.90
39847;DHT22;25517;52.422;10.782;2023-12-20T05:27:03;4.80;99.90
39847;DHT22;25517;52.422;10.782;2023-12-20T05:29:28;4.80;99.90
39847;DHT22;25517;52.422;10.782;2023-12-20T05:31:54;4.90;99.90
39847;DHT22;25517;52.422;10.782;2023-12-20T05:34:19;4.90;99.90
39847;DHT22;25517;52.422;10.782;2023-12-20T05:36:45;4.80;99.90
39847;DHT22;25517;52.422;10.782;2023-12-20T05:39:11;4.90;99.90
39847;DHT22;25517;52.422;10.782;2023-12-20T05:41:37;4.80;99.90
39847;DHT22;25517;52.422;10.782;2023-12-20T05:44:02;4.90;99.90
39847;DHT22;25517;52.422;10.782;2023-12-20T05:46:28;4.90;99.90
39847;DHT22;25517;52.422;10.782;2023-12-20T05:48:54;5.00;99.90
39847;DHT22;25517;52.422;10.782;2023-12-20T05:51:19;5.00;99.90
39847;DHT22;25517;52.422;10.782;2023-12-20T05:53:45;5.00;99.90
39847;DHT22;25517;52.422;10.782;2023-12-20T05:56:11;5.00;99.90
39847;DHT22;25517;52.422;10.782;2023-12-20T05:58:37;5.20;99.90
39847;DHT22;25517;52.422;10.782;2023-12-20T06:01:05;5.20;99.90
39847;DHT22;25517;52.422;10.782;2023-12-20T06:03:33;5.30;99.90
39847;DHT22;25517;52.422;10.782;2023-12-20T06:05:58;5.40;99.90
39847;DHT22;25517;52.422;10.782;2023-12-20T06:08:25;5.40;99.90
39847;DHT22;25517;52.422;10.782;2023-12-20T06:10:51;5.50;99.90
39847;DHT22;25517;52.422;10.782;2023-12-20T06:13:17;5.50;99.90
39847;DHT22;25517;52.422;10.782;2023-12-20T06:15:42;5.60;99.90
39847;DHT22;25517;52.422;10.782;2023-12-20T06:18:08;5.60;99.90
39847;DHT22;25517;52.422;10.782;2023-12-20T06:20:34;5.60;99.90
39847;DHT22;25517;52.422;10.782;2023-12-20T06:22:59;5.60;99.90
39847;DHT22;25517;52.422;10.782;2023-12-20T06:25:25;5.70;99.90
39847;DHT22;25517;52.422;10.782;2023-12-20T06:27:50;5.70;99.90
39847;DHT22;25517;52.422;10.782;2023-12-20T06:30:16;5.70;99.90
39847;DHT22;25517;52.422;10.782;2023-12-20T06:32:42;5.70;99.90
39847;DHT22;25517;52.422;10.782;2023-12-20T06:35:09;5.80;99.90
39847;DHT22;25517;52.422;10.782;2023-12-20T06:37:35;5.80;99.90
39847;DHT22;25517;52.422;10.782;2023-12-20T06:40:00;5.80;99.90
39847;DHT22;25517;52.422;10.782;2023-12-20T06:42:26;5.80;99.90
39847;DHT22;25517;52.422;10.782;2023-12-20T06:44:52;5.80;99.90
39847;DHT22;25517;52.422;10.782;2023-12-20T06:47:18;5.80;99.90
39847;DHT22;25517;52.422;10.782;2023-12-20T06:49:43;5.80;99.90
39847;DHT22;25517;52.422;10.782;2023-12-20T06:52:09;5.80;99.90
39847;DHT22;25517;52.422;10.782;2023-12-20T06:54:35;5.90;99.90
39847;DHT22;25517;52.422;10.782;2023-12-20T06:57:01;5.90;99.90
39847;DHT22;25517;52.422;10.782;2023-12-20T06:59:28;5.90;99.90
39847;DHT22;25517;52.422;10.782;2023-12-20T07:01:54;5.90;99.90
39847;DHT22;25517;52.422;10.782;2023-12-20T07:04:20;6.00;99.90
39847;DHT22;25517;52.422;10.782;2023-12-20T07:06:47;6.00;99.90
39847;DHT22;25517;52.422;10.782;2023-12-20T07:09:14;6.00;99.90
39847;DHT22;25517;52.422;10.782;2023-12-20T07:11:39;6.00;99.90
39847;DHT22;25517;52.422;10.782;2023-12-20T07:14:05;5.90;99.90
39847;DHT22;25517;52.422;10.782;2023-12-20T07:16:30;6.00;99.90
39847;DHT22;25517;52.422;10.782;2023-12-20T07:18:56;6.00;99.90
39847;DHT22;25517;52.422;10.782;2023-12-20T07:21:22;6.00;99.90
39847;DHT22;25517;52.422;10.782;2023-12-20T07:23:48;6.00;99.90
39847;DHT22;25517;52.422;10.782;2023-12-20T07:26:14;6.00;99.90
39847;DHT22;25517;52.422;10.782;2023-12-20T07:28:40;6.10;99.90
39847;DHT22;25517;52.422;10.782;2023-12-20T07:31:06;6.10;99.90
39847;DHT22;25517;52.422;10.782;2023-12-20T07:33:31;6.10;99.90
39847;DHT22;25517;52.422;10.782;2023-12-20T07:35:58;6.10;99.90
39847;DHT22;25517;52.422;10.782;2023-12-20T07:38:24;6.10;99.90
39847;DHT22;25517;52.422;10.782;2023-12-20T07:40:50;6.10;99.90
39847;DHT22;25517;52.422;10.782;2023-12-20T07:43:15;6.10;99.90
39847;DHT22;25517;52.422;10.782;2023-12-20T07:45:41;6.20;99.90
39847;DHT22;25517;52.422;10.782;2023-12-20T07:48:07;6.20;99.90
39847;DHT22;25517;52.422;10.782;2023-12-20T07:50:33;6.10;99.90
39847;DHT22;25517;52.422;10.782;2023-12-20T07:52:58;6.10;99.90
39847;DHT22;25517;52.422;10.782;2023-12-20T07:55:26;6.10;99.90
39847;DHT22;25517;52.422;10.782;2023-12-20T07:57:52;6.10;99.90
39847;DHT22;25517;52.422;10.782;2023-12-20T08:00:18;6.10;99.90
39847;DHT22;25517;52.422;10.782;2023-12-20T08:02:43;6.20;99.90
39847;DHT22;25517;52.422;10.782;2023-12-20T08:05:09;6.20;99.90
39847;DHT22;25517;52.422;10.782;2023-12-20T08:07:35;6.10;99.90
39847;DHT22;25517;52.422;10.782;2023-12-20T08:10:00;6.20;99.90
39847;DHT22;25517;52.422;10.782;2023-12-20T08:12:26;6.20;99.90
39847;DHT22;25517;52.422;10.782;2023-12-20T08:14:53;6.20;99.90
39847;DHT22;25517;52.422;10.782;2023-12-20T08:17:19;6.20;99.90
39847;DHT22;25517;52.422;10.782;2023-12-20T08:19:45;6.20;99.90
39847;DHT22;25517;52.422;10.782;2023-12-20T08:22:11;6.20;99.90
39847;DHT22;25517;52.422;10.782;2023-12-20T08:24:37;6.20;99.90
39847;DHT22;25517;52.422;10.782;2023-12-20T08:27:03;6.20;99.90
39847;DHT22;25517;52.422;10.782;2023-12-20T08:29:28;6.20;99.90
39847;DHT22;25517;52.422;10.782;2023-12-20T08:31:55;6.20;99.90
39847;DHT22;25517;52.422;10.782;2023-12-20T08:34:21;6.30;99.90
39847;DHT22;25517;52.422;10.782;2023-12-20T08:36:46;6.30;99.90
39847;DHT22;25517;52.422;10.782;2023-12-20T08:39:12;6.30;99.90
39847;DHT22;25517;52.422;10.782;2023-12-20T08:41:38;6.30;99.90
39847;DHT22;25517;52.422;10.782;2023-12-20T08:44:03;6.30;99.90
39847;DHT22;25517;52.422;10.782;2023-12-20T08:46:29;6.30;99.90
39847;DHT22;25517;52.422;10.782;2023-12-20T08:48:55;6.40;99.90
39847;DHT22;25517;52.422;10.782;2023-12-20T08:51:21;6.50;99.90
39847;DHT22;25517;52.422;10.782;2023-12-20T08:53:48;6.50;99.90
39847;DHT22;25517;52.422;10.782;2023-12-20T08:56:14;6.50;99.90
39847;DHT22;25517;52.422;10.782;2023-12-20T08:58:40;6.50;99.90
39847;DHT22;25517;52.422;10.782;2023-12-20T09:01:06;6.40;99.90
39847;DHT22;25517;52.422;10.782;2023-12-20T09:03:33;6.50;99.90
39847;DHT22;25517;52.422;10.782;2023-12-20T09:05:58;6.50;99.90
39847;DHT22;25517;52.422;10.782;2023-12-20T09:08:24;6.50;99.90
39847;DHT22;25517;52.422;10.782;2023-12-20T09:10:50;6.50;99.90
39847;DHT22;25517;52.422;10.782;2023-12-20T09:13:15;6.50;99.90
39847;DHT22;25517;52.422;10.782;2023-12-20T09:15:41;6.50;99.90
39847;DHT22;25517;52.422;10.782;2023-12-20T09:18:06;6.60;99.90
39847;DHT22;25517;52.422;10.782;2023-12-20T09:20:32;6.60;99.90
39847;DHT22;25517;52.422;10.782;2023-12-20T09:22:58;6.60;99.90
39847;DHT22;25517;52.422;10.782;2023-12-20T09:25:24;6.70;99.90
39847;DHT22;25517;52.422;10.782;2023-12-20T09:27:51;6.70;99.90
39847;DHT22;25517;52.422;10.782;2023-12-20T09:30:18;6.80;99.90
39847;DHT22;25517;52.422;10.782;2023-12-20T09:32:43;6.80;99.90
39847;DHT22;25517;52.422;10.782;2023-12-20T09:35:09;6.80;99.90
39847;DHT22;25517;52.422;10.782;2023-12-20T09:37:35;6.80;99.90
39847;DHT22;25517;52.422;10.782;2023-12-20T09:40:00;6.80;99.90
39847;DHT22;25517;52.422;10.782;2023-12-20T09:43:03;6.80;99.90
39847;DHT22;25517;52.422;10.782;2023-12-20T09:45:31;6.90;99.90
39847;DHT22;25517;52.422;10.782;2023-12-20T09:47:58;7.00;99.90
39847;DHT22;25517;52.422;10.782;2023-12-20T09:50:24;7.00;99.90
39847;DHT22;25517;52.422;10.782;2023-12-20T09:52:51;7.10;99.90
39847;DHT22;25517;52.422;10.782;2023-12-20T09:55:20;7.10;99.90
39847;DHT22;25517;52.422;10.782;2023-12-20T09:57:47;7.00;99.90
39847;DHT22;25517;52.422;10.782;2023-12-20T10:00:13;7.00;99.90
39847;DHT22;25517;52.422;10.782;2023-12-20T10:03:04;7.00;99.90
39847;DHT22;25517;52.422;10.782;2023-12-20T10:05:31;7.00;99.90
39847;DHT22;25517;52.422;10.782;2023-12-20T10:07:57;7.00;99.90
39847;DHT22;25517;52.422;10.782;2023-12-20T10:10:23;6.90;99.90
39847;DHT22;25517;52.422;10.782;2023-12-20T10:13:05;6.90;99.90
39847;DHT22;25517;52.422;10.782;2023-12-20T10:15:35;6.90;99.90
39847;DHT22;25517;52.422;10.782;2023-12-20T10:18:01;6.90;99.90
39847;DHT22;25517;52.422;10.782;2023-12-20T10:20:27;6.90;99.90
39847;DHT22;25517;52.422;10.782;2023-12-20T10:22:55;6.90;99.90
39847;DHT22;25517;52.422;10.782;2023-12-20T10:25:21;6.90;99.90
39847;DHT22;25517;52.422;10.782;2023-12-20T10:27:47;6.90;99.90
39847;DHT22;25517;52.422;10.782;2023-12-20T10:30:14;6.90;99.90
39847;DHT22;25517;52.422;10.782;2023-12-20T10:32:40;6.90;99.90
39847;DHT22;25517;52.422;10.782;2023-12-20T10:35:06;6.90;99.90
39847;DHT22;25517;52.422;10.782;2023-12-20T10:37:36;6.90;99.90
39847;DHT22;25517;52.422;10.782;2023-12-20T10:40:04;7.00;99.90
39847;DHT22;25517;52.422;10.782;2023-12-20T10:42:30;7.10;99.90
39847;DHT22;25517;52.422;10.782;2023-12-20T10:44:58;7.10;99.90
39847;DHT22;25517;52.422;10.782;2023-12-20T10:47:25;7.20;99.90
39847;DHT22;25517;52.422;10.782;2023-12-20T10:49:55;7.20;99.90
39847;DHT22;25517;52.422;10.782;2023-12-20T10:52:23;7.10;99.90
39847;DHT22;25517;52.422;10.782;2023-12-20T10:54:50;7.20;99.90
39847;DHT22;25517;52.422;10.782;2023-12-20T10:57:16;7.10;99.90
39847;DHT22;25517;52.422;10.782;2023-12-20T10:59:45;7.10;99.90
39847;DHT22;25517;52.422;10.782;2023-12-20T11:02:13;7.10;99.90
39847;DHT22;25517;52.422;10.782;2023-12-20T11:04:50;7.10;99.90
39847;DHT22;25517;52.422;10.782;2023-12-20T11:07:43;7.10;99.90
39847;DHT22;25517;52.422;10.782;2023-12-20T11:10:18;7.20;99.90
39847;DHT22;25517;52.422;10.782;2023-12-20T11:12:58;7.20;99.90
39847;DHT22;25517;52.422;10.782;2023-12-20T11:15:27;7.20;99.90
39847;DHT22;25517;52.422;10.782;2023-12-20T11:17:58;7.30;99.90
39847;DHT22;25517;52.422;10.782;2023-12-20T11:20:38;7.30;99.90
39847;DHT22;25517;52.422;10.782;2023-12-20T11:23:04;7.30;99.90
39847;DHT22;25517;52.422;10.782;2023-12-20T11:25:51;7.30;99.90
39847;DHT22;25517;52.422;10.782;2023-12-20T11:28:21;7.30;99.90
39847;DHT22;25517;52.422;10.782;2023-12-20T11:30:53;7.30;99.90
39847;DHT22;25517;52.422;10.782;2023-12-20T11:33:24;7.30;99.90
39847;DHT22;25517;52.422;10.782;2023-12-20T11:35:50;7.30;99.90
39847;DHT22;25517;52.422;10.782;2023-12-20T11:38:16;7.20;99.90
39847;DHT22;25517;52.422;10.782;2023-12-20T11:40:42;7.30;99.90
39847;DHT22;25517;52.422;10.782;2023-12-20T11:43:09;7.20;99.90
39847;DHT22;25517;52.422;10.782;2023-12-20T11:45:34;7.30;99.90
39847;DHT22;25517;52.422;10.782;2023-12-20T11:48:02;7.20;99.90
39847;DHT22;25517;52.422;10.782;2023-12-20T11:50:28;7.30;99.90
39847;DHT22;25517;52.422;10.782;2023-12-20T11:52:55;7.20;99.90
39847;DHT22;25517;52.422;10.782;2023-12-20T11:55:24;7.30;99.90
39847;DHT22;25517;52.422;10.782;2023-12-20T11:57:51;7.20;99.90
39847;DHT22;25517;52.422;10.782;2023-12-20T12:00:17;7.30;99.90
39847;DHT22;25517;52.422;10.782;2023-12-20T12:02:43;7.20;99.90
39847;DHT22;25517;52.422;10.782;2023-12-20T12:05:09;7.10;99.90
39847;DHT22;25517;52.422;10.782;2023-12-20T12:07:35;7.10;99.90
39847;DHT22;25517;52.422;10.782;2023-12-20T12:10:01;7.00;99.90
39847;DHT22;25517;52.422;10.782;2023-12-20T12:12:26;7.00;99.90
39847;DHT22;25517;52.422;10.782;2023-12-20T12:14:53;7.00;99.90
39847;DHT22;25517;52.422;10.782;2023-12-20T12:17:19;6.90;99.90
39847;DHT22;25517;52.422;10.782;2023-12-20T12:19:45;6.90;99.90
39847;DHT22;25517;52.422;10.782;2023-12-20T12:22:13;6.80;99.90
39847;DHT22;25517;52.422;10.782;2023-12-20T12:24:43;6.30;99.90
39847;DHT22;25517;52.422;10.782;2023-12-20T12:27:10;6.00;99.90
39847;DHT22;25517;52.422;10.782;2023-12-20T12:29:36;5.80;99.90
39847;DHT22;25517;52.422;10.782;2023-12-20T12:32:05;5.70;99.90
39847;DHT22;25517;52.422;10.782;2023-12-20T12:34:32;5.70;99.90
39847;DHT22;25517;52.422;10.782;2023-12-20T12:36:59;5.60;99.90
39847;DHT22;25517;52.422;10.782;2023-12-20T12:39:25;5.60;99.90
39847;DHT22;25517;52.422;10.782;2023-12-20T12:41:51;5.70;99.90
39847;DHT22;25517;52.422;10.782;2023-12-20T12:44:17;5.60;99.90
39847;DHT22;25517;52.422;10.782;2023-12-20T12:46:46;5.60;99.90
39847;DHT22;25517;52.422;10.782;2023-12-20T12:49:12;5.60;99.90
39847;DHT22;25517;52.422;10.782;2023-12-20T12:51:37;5.50;99.90
39847;DHT22;25517;52.422;10.782;2023-12-20T12:54:03;5.50;99.90
39847;DHT22;25517;52.422;10.782;2023-12-20T12:56:29;5.60;99.90
39847;DHT22;25517;52.422;10.782;2023-12-20T12:58:55;5.60;99.90
39847;DHT22;25517;52.422;10.782;2023-12-20T13:01:20;5.60;99.90
39847;DHT22;25517;52.422;10.782;2023-12-20T13:03:46;5.60;99.90
39847;DHT22;25517;52.422;10.782;2023-12-20T13:06:12;5.60;99.90
39847;DHT22;25517;52.422;10.782;2023-12-20T13:08:38;5.60;99.90
39847;DHT22;25517;52.422;10.782;2023-12-20T13:11:03;5.60;99.90
39847;DHT22;25517;52.422;10.782;2023-12-20T13:13:30;5.70;99.90
39847;DHT22;25517;52.422;10.782;2023-12-20T13:15:56;5.70;99.90
39847;DHT22;25517;52.422;10.782;2023-12-20T13:18:22;5.70;99.90
39847;DHT22;25517;52.422;10.782;2023-12-20T13:20:48;5.80;99.90
39847;DHT22;25517;52.422;10.782;2023-12-20T13:23:14;5.80;99.90
39847;DHT22;25517;52.422;10.782;2023-12-20T13:25:43;5.80;99.90
39847;DHT22;25517;52.422;10.782;2023-12-20T13:28:11;5.90;99.90
39847;DHT22;25517;52.422;10.782;2023-12-20T13:30:36;5.90;99.90
39847;DHT22;25517;52.422;10.782;2023-12-20T13:33:03;5.90;99.90
39847;DHT22;25517;52.422;10.782;2023-12-20T13:35:29;5.80;99.90
39847;DHT22;25517;52.422;10.782;2023-12-20T13:37:54;5.80;99.90
39847;DHT22;25517;52.422;10.782;2023-12-20T13:40:21;5.80;99.90
39847;DHT22;25517;52.422;10.782;2023-12-20T13:42:47;5.80;99.90
39847;DHT22;25517;52.422;10.782;2023-12-20T13:45:14;5.80;99.90
39847;DHT22;25517;52.422;10.782;2023-12-20T13:47:39;5.80;99.90
39847;DHT22;25517;52.422;10.782;2023-12-20T13:50:05;5.90;99.90
39847;DHT22;25517;52.422;10.782;2023-12-20T13:52:31;5.80;99.90
39847;DHT22;25517;52.422;10.782;2023-12-20T13:54:56;5.80;99.90
39847;DHT22;25517;52.422;10.782;2023-12-20T13:57:22;5.70;99.90
39847;DHT22;25517;52.422;10.782;2023-12-20T13:59:48;5.70;99.90
39847;DHT22;25517;52.422;10.782;2023-12-20T14:02:13;5.60;99.90
39847;DHT22;25517;52.422;10.782;2023-12-20T14:04:39;5.60;99.90
39847;DHT22;25517;52.422;10.782;2023-12-20T14:07:05;5.60;99.90
39847;DHT22;25517;52.422;10.782;2023-12-20T14:09:33;5.50;99.90
39847;DHT22;25517;52.422;10.782;2023-12-20T14:11:58;5.50;99.90
39847;DHT22;25517;52.422;10.782;2023-12-20T14:14:24;5.50;99.90
39847;DHT22;25517;52.422;10.782;2023-12-20T14:16:50;5.50;99.90
39847;DHT22;25517;52.422;10.782;2023-12-20T14:19:16;5.50;99.90
39847;DHT22;25517;52.422;10.782;2023-12-20T14:21:42;5.40;99.90
39847;DHT22;25517;52.422;10.782;2023-12-20T14:24:07;5.40;99.90
39847;DHT22;25517;52.422;10.782;2023-12-20T14:26:33;5.40;99.90
39847;DHT22;25517;52.422;10.782;2023-12-20T14:28:59;5.40;99.90
39847;DHT22;25517;52.422;10.782;2023-12-20T14:31:24;5.40;99.90
39847;DHT22;25517;52.422;10.782;2023-12-20T14:33:50;5.40;99.90
39847;DHT22;25517;52.422;10.782;2023-12-20T14:36:18;5.30;99.90
39847;DHT22;25517;52.422;10.782;2023-12-20T14:38:45;5.40;99.90
39847;DHT22;25517;52.422;10.782;2023-12-20T14:41:12;5.30;99.90
39847;DHT22;25517;52.422;10.782;2023-12-20T14:43:38;5.30;99.90
39847;DHT22;25517;52.422;10.782;2023-12-20T14:46:03;5.30;99.90
39847;DHT22;25517;52.422;10.782;2023-12-20T14:48:30;5.30;99.90
39847;DHT22;25517;52.422;10.782;2023-12-20T14:50:57;5.30;99.90
39847;DHT22;25517;52.422;10.782;2023-12-20T14:53:24;5.40;99.90
39847;DHT22;25517;52.422;10.782;2023-12-20T14:55:50;5.40;99.90
39847;DHT22;25517;52.422;10.782;2023-12-20T14:58:16;5.40;99.90
39847;DHT22;25517;52.422;10.782;2023-12-20T15:00:42;5.40;99.90
39847;DHT22;25517;52.422;10.782;2023-12-20T15:03:09;5.30;99.90
39847;DHT22;25517;52.422;10.782;2023-12-20T15:05:34;5.40;99.90
39847;DHT22;25517;52.422;10.782;2023-12-20T15:08:01;5.40;99.90
39847;DHT22;25517;52.422;10.782;2023-12-20T15:10:27;5.30;99.90
39847;DHT22;25517;52.422;10.782;2023-12-20T15:12:52;5.30;99.90
39847;DHT22;25517;52.422;10.782;2023-12-20T15:15:18;5.30;99.90
39847;DHT22;25517;52.422;10.782;2023-12-20T15:17:45;5.30;99.90
39847;DHT22;25517;52.422;10.782;2023-12-20T15:20:11;5.30;99.90
39847;DHT22;25517;52.422;10.782;2023-12-20T15:22:37;5.40;99.90
39847;DHT22;25517;52.422;10.782;2023-12-20T15:25:03;5.40;99.90